LYM3712 KDEN-KTEX
Flight info
| Callsign | LYM3712 |
|---|---|
| Flight time | 0h 42m |
| Altitude | 26000 |
| Route | BAYLR6 TEHRU HERRM ETL |
| Aircraft | E145/M-SABDFGRW/S |
Departure
| Time | 2026-05-08 23:24 |
|---|---|
| Airport | Denver International Airport (KDEN) |
Arrival
| Time | 2026-05-09 00:07 |
|---|---|
| Airport | Telluride Regional Airport (KTEX) |
| Time | Latitude | Longitude | Altitude | Speed | Heading |
|---|---|---|---|---|---|
| 2026-05-08 23:03 | 39.86282 | -104.66574 | 5376 ft | 0 kts | 270° |
| 2026-05-08 23:10 | 39.86282 | -104.66575 | 5376 ft | 0 kts | 270° |
| 2026-05-08 23:11 | 39.86282 | -104.66562 | 5377 ft | 2 kts | 270° |
| 2026-05-08 23:11 | 39.86282 | -104.66547 | 5377 ft | 0 kts | 270° |
| 2026-05-08 23:11 | 39.86283 | -104.66531 | 5378 ft | 2 kts | 245° |
| 2026-05-08 23:11 | 39.86292 | -104.66515 | 5378 ft | 2 kts | 216° |
| 2026-05-08 23:12 | 39.86306 | -104.66508 | 5378 ft | 2 kts | 186° |
| 2026-05-08 23:12 | 39.86312 | -104.66508 | 5378 ft | 0 kts | 179° |
| 2026-05-08 23:14 | 39.86308 | -104.66508 | 5378 ft | 1 kts | 180° |
| 2026-05-08 23:14 | 39.86295 | -104.66509 | 5378 ft | 2 kts | 183° |
| 2026-05-08 23:14 | 39.86272 | -104.66512 | 5378 ft | 3 kts | 190° |
| 2026-05-08 23:15 | 39.86249 | -104.66515 | 5378 ft | 0 kts | 181° |
| 2026-05-08 23:15 | 39.86245 | -104.66515 | 5378 ft | 2 kts | 179° |
| 2026-05-08 23:15 | 39.86175 | -104.66512 | 5378 ft | 13 kts | 179° |
| 2026-05-08 23:16 | 39.86102 | -104.66588 | 5377 ft | 15 kts | 241° |
| 2026-05-08 23:16 | 39.86061 | -104.66715 | 5378 ft | 15 kts | 261° |
| 2026-05-08 23:16 | 39.86061 | -104.66859 | 5378 ft | 16 kts | 270° |
| 2026-05-08 23:16 | 39.86063 | -104.67014 | 5378 ft | 17 kts | 270° |
| 2026-05-08 23:17 | 39.86064 | -104.67176 | 5378 ft | 18 kts | 270° |
| 2026-05-08 23:17 | 39.86066 | -104.67346 | 5378 ft | 19 kts | 270° |
| 2026-05-08 23:17 | 39.86066 | -104.67528 | 5378 ft | 20 kts | 269° |
| 2026-05-08 23:17 | 39.86067 | -104.67714 | 5378 ft | 21 kts | 270° |
| 2026-05-08 23:18 | 39.86068 | -104.67896 | 5378 ft | 18 kts | 270° |
| 2026-05-08 23:18 | 39.86070 | -104.68065 | 5378 ft | 14 kts | 270° |
| 2026-05-08 23:18 | 39.86037 | -104.68192 | 5377 ft | 16 kts | 250° |
| 2026-05-08 23:18 | 39.86029 | -104.68350 | 5373 ft | 19 kts | 254° |
| 2026-05-08 23:19 | 39.85913 | -104.68395 | 5373 ft | 19 kts | 179° |
| 2026-05-08 23:19 | 39.85775 | -104.68397 | 5373 ft | 20 kts | 180° |
| 2026-05-08 23:19 | 39.85633 | -104.68398 | 5373 ft | 20 kts | 181° |
| 2026-05-08 23:19 | 39.85486 | -104.68400 | 5373 ft | 21 kts | 180° |
| 2026-05-08 23:20 | 39.85338 | -104.68402 | 5374 ft | 19 kts | 182° |
| 2026-05-08 23:20 | 39.85212 | -104.68431 | 5374 ft | 18 kts | 240° |
| 2026-05-08 23:20 | 39.85204 | -104.68602 | 5372 ft | 20 kts | 267° |
| 2026-05-08 23:20 | 39.85200 | -104.68814 | 5360 ft | 27 kts | 269° |
| 2026-05-08 23:21 | 39.85197 | -104.69033 | 5355 ft | 25 kts | 269° |
| 2026-05-08 23:21 | 39.85198 | -104.69196 | 5344 ft | 12 kts | 271° |
| 2026-05-08 23:21 | 39.85200 | -104.69338 | 5340 ft | 17 kts | 273° |
| 2026-05-08 23:21 | 39.85203 | -104.69486 | 5340 ft | 7 kts | 270° |
| 2026-05-08 23:22 | 39.85203 | -104.69498 | 5340 ft | 0 kts | 269° |
| 2026-05-08 23:22 | 39.85203 | -104.69505 | 5340 ft | 1 kts | 270° |
| 2026-05-08 23:22 | 39.85204 | -104.69540 | 5340 ft | 8 kts | 271° |
| 2026-05-08 23:23 | 39.85210 | -104.69634 | 5340 ft | 10 kts | 299° |
| 2026-05-08 23:23 | 39.85255 | -104.69657 | 5340 ft | 0 kts | 359° |
| 2026-05-08 23:23 | 39.85319 | -104.69656 | 5339 ft | 24 kts | 1° |
| 2026-05-08 23:23 | 39.85714 | -104.69649 | 5336 ft | 92 kts | 359° |
| 2026-05-08 23:24 | 39.86565 | -104.69644 | 5334 ft | 148 kts | 1° |
| 2026-05-08 23:24 | 39.87682 | -104.69648 | 5591 ft | 165 kts | 3° |
| 2026-05-08 23:24 | 39.88827 | -104.69656 | 6217 ft | 168 kts | 359° |
| 2026-05-08 23:24 | 39.89905 | -104.70212 | 6790 ft | 179 kts | 322° |
| 2026-05-08 23:25 | 39.90589 | -104.71754 | 6846 ft | 221 kts | 281° |
| 2026-05-08 23:25 | 39.90382 | -104.73841 | 6951 ft | 257 kts | 246° |
| 2026-05-08 23:25 | 39.89166 | -104.75786 | 7021 ft | 296 kts | 215° |
| 2026-05-08 23:25 | 39.87252 | -104.76975 | 7057 ft | 312 kts | 201° |
| 2026-05-08 23:26 | 39.85512 | -104.78605 | 7371 ft | 303 kts | 232° |
| 2026-05-08 23:26 | 39.84284 | -104.80631 | 8195 ft | 277 kts | 229° |
| 2026-05-08 23:26 | 39.83016 | -104.82482 | 8419 ft | 276 kts | 229° |
| 2026-05-08 23:26 | 39.81712 | -104.84373 | 8603 ft | 288 kts | 229° |
| 2026-05-08 23:27 | 39.80376 | -104.86304 | 9372 ft | 285 kts | 229° |
| 2026-05-08 23:27 | 39.79034 | -104.88244 | 9696 ft | 303 kts | 229° |
| 2026-05-08 23:27 | 39.77670 | -104.90477 | 9737 ft | 324 kts | 245° |
| 2026-05-08 23:27 | 39.77003 | -104.93037 | 11215 ft | 291 kts | 255° |
| 2026-05-08 23:28 | 39.76429 | -104.95531 | 11756 ft | 297 kts | 256° |
| 2026-05-08 23:28 | 39.75840 | -104.98186 | 11976 ft | 313 kts | 256° |
| 2026-05-08 23:28 | 39.75236 | -105.00912 | 12457 ft | 319 kts | 256° |
| 2026-05-08 23:28 | 39.74539 | -105.03624 | 13084 ft | 320 kts | 250° |
| 2026-05-08 23:29 | 39.73654 | -105.06303 | 13680 ft | 321 kts | 250° |
| 2026-05-08 23:29 | 39.72785 | -105.08963 | 14239 ft | 323 kts | 250° |
| 2026-05-08 23:29 | 39.71905 | -105.11653 | 14778 ft | 325 kts | 250° |
| 2026-05-08 23:29 | 39.71023 | -105.14346 | 15312 ft | 327 kts | 250° |
| 2026-05-08 23:30 | 39.70125 | -105.17086 | 15830 ft | 329 kts | 250° |
| 2026-05-08 23:30 | 39.69228 | -105.19819 | 16373 ft | 330 kts | 250° |
| 2026-05-08 23:30 | 39.68333 | -105.22546 | 16921 ft | 330 kts | 251° |
| 2026-05-08 23:30 | 39.67422 | -105.25314 | 17451 ft | 332 kts | 251° |
| 2026-05-08 23:31 | 39.66511 | -105.28083 | 17911 ft | 335 kts | 251° |
| 2026-05-08 23:31 | 39.65598 | -105.30853 | 18558 ft | 331 kts | 251° |
| 2026-05-08 23:31 | 39.64710 | -105.33547 | 19204 ft | 328 kts | 251° |
| 2026-05-08 23:31 | 39.63812 | -105.36266 | 19734 ft | 328 kts | 251° |
| 2026-05-08 23:32 | 39.62922 | -105.38966 | 20311 ft | 326 kts | 251° |
| 2026-05-08 23:32 | 39.62035 | -105.41656 | 20879 ft | 325 kts | 252° |
| 2026-05-08 23:32 | 39.61150 | -105.44334 | 21422 ft | 324 kts | 252° |
| 2026-05-08 23:32 | 39.60261 | -105.47027 | 22030 ft | 321 kts | 252° |
| 2026-05-08 23:33 | 39.59391 | -105.49654 | 22540 ft | 321 kts | 252° |
| 2026-05-08 23:33 | 39.58516 | -105.52283 | 23056 ft | 320 kts | 252° |
| 2026-05-08 23:33 | 39.57641 | -105.54913 | 23570 ft | 319 kts | 252° |
| 2026-05-08 23:33 | 39.56755 | -105.57568 | 24055 ft | 319 kts | 253° |
| 2026-05-08 23:34 | 39.55882 | -105.60187 | 24532 ft | 319 kts | 253° |
| 2026-05-08 23:34 | 39.54931 | -105.62805 | 24984 ft | 323 kts | 246° |
| 2026-05-08 23:34 | 39.54085 | -105.65404 | 25379 ft | 314 kts | 261° |
| 2026-05-08 23:34 | 39.53481 | -105.68164 | 25788 ft | 317 kts | 258° |
| 2026-05-08 23:35 | 39.52797 | -105.70850 | 26174 ft | 317 kts | 257° |
| 2026-05-08 23:35 | 39.52068 | -105.73583 | 26318 ft | 325 kts | 257° |
| 2026-05-08 23:35 | 39.51307 | -105.76369 | 26339 ft | 336 kts | 256° |
| 2026-05-08 23:35 | 39.50502 | -105.79286 | 26345 ft | 346 kts | 256° |
| 2026-05-08 23:36 | 39.49688 | -105.82222 | 26354 ft | 356 kts | 255° |
| 2026-05-08 23:36 | 39.48836 | -105.85283 | 26361 ft | 365 kts | 255° |
| 2026-05-08 23:36 | 39.47963 | -105.88416 | 26348 ft | 374 kts | 255° |
| 2026-05-08 23:36 | 39.47069 | -105.91621 | 26355 ft | 382 kts | 255° |
| 2026-05-08 23:37 | 39.46160 | -105.94878 | 26354 ft | 389 kts | 255° |
| 2026-05-08 23:37 | 39.45231 | -105.98201 | 26372 ft | 395 kts | 255° |
| 2026-05-08 23:37 | 39.44282 | -106.01588 | 26368 ft | 402 kts | 255° |
| 2026-05-08 23:37 | 39.43337 | -106.04958 | 26407 ft | 402 kts | 255° |
| 2026-05-08 23:38 | 39.42381 | -106.08360 | 26415 ft | 398 kts | 255° |
| 2026-05-08 23:38 | 39.41437 | -106.11720 | 26418 ft | 396 kts | 255° |
| 2026-05-08 23:38 | 39.40507 | -106.15022 | 26419 ft | 393 kts | 255° |
| 2026-05-08 23:38 | 39.39569 | -106.18351 | 26418 ft | 391 kts | 255° |
| 2026-05-08 23:39 | 39.38646 | -106.21618 | 26425 ft | 389 kts | 255° |
| 2026-05-08 23:39 | 39.37725 | -106.24878 | 26427 ft | 387 kts | 255° |
| 2026-05-08 23:39 | 39.36797 | -106.28168 | 26421 ft | 386 kts | 255° |
| 2026-05-08 23:39 | 39.35880 | -106.31406 | 26423 ft | 385 kts | 255° |
| 2026-05-08 23:40 | 39.34963 | -106.34643 | 26431 ft | 386 kts | 255° |
| 2026-05-08 23:40 | 39.34032 | -106.37924 | 26433 ft | 388 kts | 255° |
| 2026-05-08 23:40 | 39.33102 | -106.41192 | 26431 ft | 389 kts | 255° |
| 2026-05-08 23:40 | 39.32167 | -106.44479 | 26442 ft | 390 kts | 255° |
| 2026-05-08 23:41 | 39.31233 | -106.47757 | 26436 ft | 391 kts | 255° |
| 2026-05-08 23:41 | 39.30289 | -106.51061 | 26428 ft | 393 kts | 255° |
| 2026-05-08 23:41 | 39.29347 | -106.54361 | 26444 ft | 393 kts | 255° |
| 2026-05-08 23:41 | 39.28400 | -106.57667 | 26466 ft | 394 kts | 255° |
| 2026-05-08 23:42 | 39.27449 | -106.60987 | 26435 ft | 395 kts | 255° |
| 2026-05-08 23:42 | 39.26499 | -106.64304 | 26439 ft | 396 kts | 255° |
| 2026-05-08 23:42 | 39.25541 | -106.67635 | 26429 ft | 397 kts | 254° |
| 2026-05-08 23:42 | 39.24570 | -106.71011 | 26410 ft | 398 kts | 254° |
| 2026-05-08 23:43 | 39.23432 | -106.74274 | 26403 ft | 403 kts | 248° |
| 2026-05-08 23:43 | 39.22171 | -106.77519 | 26416 ft | 403 kts | 249° |
| 2026-05-08 23:43 | 39.20925 | -106.80745 | 26393 ft | 404 kts | 248° |
| 2026-05-08 23:43 | 39.19662 | -106.84014 | 26381 ft | 405 kts | 248° |
| 2026-05-08 23:44 | 39.18407 | -106.87263 | 26378 ft | 405 kts | 249° |
| 2026-05-08 23:44 | 39.17149 | -106.90514 | 26393 ft | 405 kts | 249° |
| 2026-05-08 23:44 | 39.15897 | -106.93748 | 26424 ft | 405 kts | 249° |
| 2026-05-08 23:44 | 39.14634 | -106.97004 | 26429 ft | 406 kts | 249° |
| 2026-05-08 23:45 | 39.13366 | -107.00271 | 26424 ft | 406 kts | 249° |
| 2026-05-08 23:45 | 39.12098 | -107.03537 | 26473 ft | 406 kts | 249° |
| 2026-05-08 23:45 | 39.10829 | -107.06799 | 26498 ft | 406 kts | 249° |
| 2026-05-08 23:45 | 39.09553 | -107.10075 | 26525 ft | 406 kts | 249° |
| 2026-05-08 23:46 | 39.08297 | -107.13299 | 26517 ft | 407 kts | 249° |
| 2026-05-08 23:46 | 39.07020 | -107.16571 | 26525 ft | 407 kts | 249° |
| 2026-05-08 23:46 | 39.05744 | -107.19838 | 26526 ft | 407 kts | 249° |
| 2026-05-08 23:46 | 39.04473 | -107.23090 | 26517 ft | 408 kts | 248° |
| 2026-05-08 23:47 | 39.03188 | -107.26369 | 26512 ft | 409 kts | 249° |
| 2026-05-08 23:47 | 39.01908 | -107.29636 | 26511 ft | 409 kts | 249° |
| 2026-05-08 23:47 | 39.00637 | -107.32878 | 26512 ft | 409 kts | 248° |
| 2026-05-08 23:47 | 38.99341 | -107.36177 | 26512 ft | 410 kts | 249° |
| 2026-05-08 23:48 | 38.98057 | -107.39443 | 26488 ft | 411 kts | 249° |
| 2026-05-08 23:48 | 38.96770 | -107.42714 | 26495 ft | 411 kts | 248° |
| 2026-05-08 23:48 | 38.95469 | -107.46016 | 26488 ft | 411 kts | 249° |
| 2026-05-08 23:48 | 38.94186 | -107.49271 | 26466 ft | 412 kts | 248° |
| 2026-05-08 23:49 | 38.92884 | -107.52567 | 26472 ft | 412 kts | 248° |
| 2026-05-08 23:49 | 38.91579 | -107.55868 | 26469 ft | 412 kts | 248° |
| 2026-05-08 23:49 | 38.90283 | -107.59144 | 26464 ft | 412 kts | 248° |
| 2026-05-08 23:49 | 38.88988 | -107.62413 | 26454 ft | 412 kts | 248° |
| 2026-05-08 23:50 | 38.87687 | -107.65694 | 26455 ft | 412 kts | 248° |
| 2026-05-08 23:50 | 38.86369 | -107.69016 | 26447 ft | 413 kts | 248° |
| 2026-05-08 23:50 | 38.85059 | -107.72313 | 26438 ft | 413 kts | 248° |
| 2026-05-08 23:50 | 38.83751 | -107.75599 | 26436 ft | 413 kts | 248° |
| 2026-05-08 23:51 | 38.82455 | -107.78855 | 26426 ft | 413 kts | 248° |
| 2026-05-08 23:51 | 38.81136 | -107.82164 | 26379 ft | 415 kts | 248° |
| 2026-05-08 23:51 | 38.79827 | -107.85443 | 26349 ft | 415 kts | 248° |
| 2026-05-08 23:51 | 38.78518 | -107.88721 | 26326 ft | 416 kts | 248° |
| 2026-05-08 23:52 | 38.77191 | -107.92037 | 26292 ft | 416 kts | 248° |
| 2026-05-08 23:52 | 38.75870 | -107.95337 | 26271 ft | 417 kts | 248° |
| 2026-05-08 23:52 | 38.74543 | -107.98648 | 26250 ft | 417 kts | 248° |
| 2026-05-08 23:52 | 38.73216 | -108.01955 | 26233 ft | 417 kts | 248° |
| 2026-05-08 23:53 | 38.71905 | -108.05218 | 26211 ft | 417 kts | 248° |
| 2026-05-08 23:53 | 38.70566 | -108.08549 | 26218 ft | 416 kts | 248° |
| 2026-05-08 23:53 | 38.69255 | -108.11806 | 26241 ft | 415 kts | 248° |
| 2026-05-08 23:53 | 38.67931 | -108.15090 | 26280 ft | 414 kts | 248° |
| 2026-05-08 23:54 | 38.66608 | -108.18370 | 26300 ft | 414 kts | 248° |
| 2026-05-08 23:54 | 38.65302 | -108.21606 | 26313 ft | 413 kts | 248° |
| 2026-05-08 23:54 | 38.63977 | -108.24884 | 26345 ft | 413 kts | 248° |
| 2026-05-08 23:55 | 38.61339 | -108.31399 | 26351 ft | 412 kts | 248° |
| 2026-05-08 23:55 | 38.60017 | -108.34659 | 26381 ft | 412 kts | 248° |
| 2026-05-08 23:55 | 38.58704 | -108.37893 | 26396 ft | 412 kts | 248° |
| 2026-05-08 23:55 | 38.57388 | -108.41129 | 26394 ft | 412 kts | 247° |
| 2026-05-08 23:56 | 38.55855 | -108.44224 | 26400 ft | 417 kts | 238° |
| 2026-05-08 23:56 | 38.53907 | -108.47012 | 26406 ft | 423 kts | 229° |
| 2026-05-08 23:56 | 38.51611 | -108.49379 | 26396 ft | 428 kts | 219° |
| 2026-05-08 23:56 | 38.49019 | -108.51265 | 26407 ft | 433 kts | 210° |
| 2026-05-08 23:57 | 38.46168 | -108.52631 | 26405 ft | 438 kts | 200° |
| 2026-05-08 23:57 | 38.43192 | -108.53407 | 26403 ft | 442 kts | 191° |
| 2026-05-08 23:57 | 38.40076 | -108.53605 | 26233 ft | 450 kts | 182° |
| 2026-05-08 23:57 | 38.36945 | -108.53200 | 25967 ft | 448 kts | 172° |
| 2026-05-08 23:58 | 38.33978 | -108.52213 | 25690 ft | 436 kts | 162° |
| 2026-05-08 23:58 | 38.31267 | -108.50701 | 25420 ft | 425 kts | 153° |
| 2026-05-08 23:58 | 38.28821 | -108.48682 | 25171 ft | 414 kts | 142° |
| 2026-05-08 23:58 | 38.26722 | -108.46230 | 24823 ft | 407 kts | 130° |
| 2026-05-08 23:59 | 38.25060 | -108.43362 | 24308 ft | 405 kts | 129° |
| 2026-05-08 23:59 | 38.22938 | -108.41003 | 23794 ft | 404 kts | 146° |
| 2026-05-08 23:59 | 38.20604 | -108.39045 | 23278 ft | 401 kts | 148° |
| 2026-05-08 23:59 | 38.18269 | -108.37174 | 22506 ft | 399 kts | 149° |
| 2026-05-09 00:00 | 38.15935 | -108.35317 | 21746 ft | 396 kts | 149° |
| 2026-05-09 00:00 | 38.13591 | -108.33453 | 20988 ft | 394 kts | 149° |
| 2026-05-09 00:00 | 38.11293 | -108.31627 | 20248 ft | 391 kts | 149° |
| 2026-05-09 00:00 | 38.09010 | -108.29815 | 19515 ft | 388 kts | 149° |
| 2026-05-09 00:01 | 38.06712 | -108.27992 | 18779 ft | 385 kts | 149° |
| 2026-05-09 00:01 | 38.04644 | -108.25875 | 18041 ft | 383 kts | 131° |
| 2026-05-09 00:01 | 38.03273 | -108.23022 | 17317 ft | 377 kts | 109° |
| 2026-05-09 00:01 | 38.02540 | -108.19850 | 16598 ft | 372 kts | 105° |
| 2026-05-09 00:02 | 38.01792 | -108.16792 | 15874 ft | 364 kts | 105° |
| 2026-05-09 00:02 | 38.01044 | -108.13751 | 15172 ft | 354 kts | 106° |
| 2026-05-09 00:02 | 38.00321 | -108.10821 | 14784 ft | 340 kts | 106° |
| 2026-05-09 00:02 | 37.99630 | -108.08020 | 14730 ft | 320 kts | 105° |
| 2026-05-09 00:03 | 37.98979 | -108.05389 | 14516 ft | 310 kts | 106° |
| 2026-05-09 00:03 | 37.98322 | -108.02731 | 13754 ft | 320 kts | 106° |
| 2026-05-09 00:03 | 37.97646 | -108.00003 | 13008 ft | 327 kts | 106° |
| 2026-05-09 00:03 | 37.96925 | -107.97276 | 12304 ft | 332 kts | 112° |
| 2026-05-09 00:04 | 37.95657 | -107.94804 | 11864 ft | 325 kts | 131° |
| 2026-05-09 00:04 | 37.94105 | -107.92777 | 11603 ft | 311 kts | 134° |
| 2026-05-09 00:04 | 37.92744 | -107.90749 | 11552 ft | 284 kts | 121° |
| 2026-05-09 00:04 | 37.92160 | -107.88577 | 11875 ft | 237 kts | 90° |
| 2026-05-09 00:05 | 37.92147 | -107.86610 | 11952 ft | 218 kts | 87° |
| 2026-05-09 00:05 | 37.92635 | -107.84971 | 11749 ft | 189 kts | 37° |
| 2026-05-09 00:05 | 37.93698 | -107.84414 | 11734 ft | 158 kts | 352° |
| 2026-05-09 00:05 | 37.94565 | -107.85129 | 11313 ft | 161 kts | 293° |
| 2026-05-09 00:06 | 37.94652 | -107.86584 | 10459 ft | 171 kts | 269° |
| 2026-05-09 00:06 | 37.94757 | -107.88021 | 9738 ft | 164 kts | 287° |
| 2026-05-09 00:06 | 37.95056 | -107.89357 | 9186 ft | 147 kts | 283° |
| 2026-05-09 00:06 | 37.95299 | -107.90475 | 9073 ft | 109 kts | 285° |
| 2026-05-09 00:07 | 37.95423 | -107.91074 | 9056 ft | 47 kts | 285° |
| 2026-05-09 00:07 | 37.95497 | -107.91416 | 9064 ft | 29 kts | 285° |
| 2026-05-09 00:07 | 37.95539 | -107.91613 | 9072 ft | 18 kts | 284° |
| 2026-05-09 00:07 | 37.95560 | -107.91695 | 9075 ft | 1 kts | 308° |
| 2026-05-09 00:08 | 37.95562 | -107.91709 | 9075 ft | 3 kts | 234° |
| 2026-05-09 00:08 | 37.95539 | -107.91644 | 9073 ft | 16 kts | 98° |
| 2026-05-09 00:08 | 37.95506 | -107.91466 | 9066 ft | 25 kts | 104° |
| 2026-05-09 00:08 | 37.95454 | -107.91215 | 9058 ft | 31 kts | 105° |
| 2026-05-09 00:09 | 37.95394 | -107.90942 | 9056 ft | 32 kts | 105° |
| 2026-05-09 00:09 | 37.95339 | -107.90674 | 9064 ft | 29 kts | 104° |
| 2026-05-09 00:09 | 37.95289 | -107.90438 | 9076 ft | 25 kts | 104° |
| 2026-05-09 00:09 | 37.95247 | -107.90238 | 9086 ft | 21 kts | 104° |
| 2026-05-09 00:10 | 37.95298 | -107.90122 | 9093 ft | 16 kts | 13° |
| 2026-05-09 00:10 | 37.95348 | -107.90171 | 9091 ft | 11 kts | 283° |
| 2026-05-09 00:10 | 37.95367 | -107.90223 | 9088 ft | 2 kts | 354° |
| 2026-05-09 00:10 | 37.95387 | -107.90218 | 9088 ft | 2 kts | 12° |
| 2026-05-09 00:11 | 37.95396 | -107.90215 | 9088 ft | 0 kts | 12° |
| 2026-05-09 00:11 | 37.95398 | -107.90215 | 9088 ft | 0 kts | 12° |